Hanover, Wisconsin
Current Conditions -  °F | °C
As of 2:45 PM on Friday 28 Nov 2014 (Local Time) from KJVL Reporting Station
Scattered Clouds Scattered Clouds  
Wind Chill: 21°   Ceiling: Unl
Heat Index: 30°   Visibility: 10mi
Dew Point: 21°   Wind: 12mph
Humidity: 69%   Direction: 170°S
Pressure: 29.94"   Gusts: NA
Location:  42.64°N, 89.16°W
Report Text: KJVL 282045Z 17010KT 10SM SCT017 M01/M06 A2994
Loading
Personal Weather Stations






























Interactive Weather Map New forecast layout! Learn more

10-Day Weather Forecast

Advertisements
Track Severe Weather on mobile